createdAt,value
2016-05-25T00:00:08.094Z,90.64
2016-05-25T00:01:08.613Z,90.36
2016-05-25T00:02:08.146Z,90.17
2016-05-25T00:03:08.180Z,90.08
2016-05-25T00:04:08.199Z,89.89
2016-05-25T00:05:08.249Z,89.79
2016-05-25T00:06:08.283Z,90.08
2016-05-25T00:07:08.316Z,90.45
2016-05-25T00:08:08.350Z,90.08
2016-05-25T00:09:08.385Z,90.36
2016-05-25T00:10:08.433Z,90.36
2016-05-25T00:11:08.436Z,90.08
2016-05-25T00:12:08.485Z,90.17
2016-05-25T00:13:08.504Z,89.89
2016-05-25T00:14:08.538Z,89.31
2016-05-25T00:15:08.571Z,89.79
2016-05-25T00:16:08.607Z,90.17
2016-05-25T00:17:08.640Z,89.79
2016-05-25T00:18:08.674Z,89.4
2016-05-25T00:19:08.551Z,89.79
2016-05-25T00:20:08.742Z,89.4
2016-05-25T00:21:08.776Z,89.6
2016-05-25T00:22:08.794Z,89.5
2016-05-25T00:23:08.828Z,89.79
2016-05-25T00:24:08.862Z,89.6
2016-05-25T00:25:08.896Z,89.4
2016-05-25T00:26:08.945Z,89.12
2016-05-25T00:27:08.808Z,89.89
2016-05-25T00:28:08.998Z,90.26
2016-05-25T00:29:09.032Z,89.79
2016-05-25T00:30:09.066Z,89.89
2016-05-25T00:31:09.272Z,90.45
2016-05-25T00:32:08.992Z,90.08
2016-05-25T00:33:09.167Z,90.08
2016-05-25T00:34:09.202Z,90.26
2016-05-25T00:35:09.219Z,89.98
2016-05-25T00:36:09.269Z,90.08
2016-05-25T00:37:09.287Z,90.36
2016-05-25T00:38:09.338Z,90.26
2016-05-25T00:39:09.356Z,90.26
2016-05-25T00:40:09.389Z,90.26
2016-05-25T00:41:09.424Z,90.36
2016-05-25T00:42:09.457Z,89.89
2016-05-25T00:43:09.335Z,89.98
2016-05-25T00:44:09.524Z,90.45
2016-05-25T00:45:09.402Z,90.08
2016-05-25T00:46:09.593Z,90.08
2016-05-25T00:47:09.471Z,90.45
2016-05-25T00:48:09.661Z,89.6
2016-05-25T00:49:09.679Z,89.79
2016-05-25T00:50:09.729Z,89.69
2016-05-25T00:51:09.747Z,89.6
2016-05-25T00:52:09.796Z,89.4
2016-05-25T00:53:09.831Z,88.84
2016-05-25T00:54:09.864Z,89.17
2016-05-25T00:55:09.899Z,89.22
2016-05-25T00:56:09.761Z,88.93
2016-05-25T00:57:09.950Z,89.79
2016-05-25T00:58:09.984Z,89.31
2016-05-25T00:59:10.019Z,89.31
2016-05-25T01:00:10.053Z,89.31
2016-05-25T01:01:10.086Z,89.5
2016-05-25T01:02:09.964Z,89.6
2016-05-25T01:03:09.998Z,90.45
2016-05-25T01:04:10.188Z,90.17
2016-05-25T01:05:10.206Z,89.98
2016-05-25T01:06:10.240Z,89.98
2016-05-25T01:07:10.290Z,90.36
2016-05-25T01:08:10.308Z,90.26
2016-05-25T01:09:10.186Z,89.98
2016-05-25T01:10:10.377Z,89.4
2016-05-25T01:11:10.410Z,89.5
2016-05-25T01:12:10.444Z,89.31
2016-05-25T01:13:10.477Z,89.31
2016-05-25T01:14:10.512Z,89.31
2016-05-25T01:15:10.562Z,89.4
2016-05-25T01:16:10.689Z,89.31
2016-05-25T01:17:10.613Z,89.4
2016-05-25T01:18:10.632Z,88.64
2016-05-25T01:19:10.666Z,88.84
2016-05-25T01:20:10.715Z,88.93
2016-05-25T01:21:10.765Z,88.26
2016-05-25T01:22:10.768Z,88.93
2016-05-25T01:23:10.645Z,89.03
2016-05-25T01:24:10.851Z,89.22
2016-05-25T01:25:10.870Z,89.12
2016-05-25T01:26:10.903Z,89.6
2016-05-25T01:27:10.938Z,89.69
2016-05-25T01:28:10.972Z,89.98
2016-05-25T01:29:11.006Z,90.08
2016-05-25T01:30:11.039Z,90.08
2016-05-25T01:31:11.073Z,90.08
2016-05-25T01:32:10.951Z,90.08
2016-05-25T01:33:11.125Z,90.45
2016-05-25T01:34:11.175Z,89.89
2016-05-25T01:35:11.194Z,89.89
2016-05-25T01:36:11.071Z,90.17
2016-05-25T01:37:11.261Z,90.08
2016-05-25T01:38:11.294Z,90.08
2016-05-25T01:39:11.329Z,90.08
2016-05-25T01:40:11.380Z,89.98
2016-05-25T01:41:11.397Z,90.55
2016-05-25T01:42:11.447Z,90.26
2016-05-25T01:43:11.465Z,90.08
2016-05-25T01:44:11.499Z,89.98
2016-05-25T01:45:11.549Z,90.26
2016-05-25T01:46:11.926Z,90.36
2016-05-25T01:47:11.616Z,90.93
2016-05-25T01:48:11.619Z,90.55
2016-05-25T01:49:11.669Z,90.64
2016-05-25T01:50:11.702Z,90.45
2016-05-25T01:51:11.720Z,90.45
2016-05-25T01:52:11.615Z,90.45
2016-05-25T01:53:11.804Z,90.55
2016-05-25T01:54:11.823Z,91.03
2016-05-25T01:55:11.872Z,90.74
2016-05-25T01:56:11.890Z,90.84
2016-05-25T01:57:11.925Z,90.55
2016-05-25T01:58:11.958Z,90.36
2016-05-25T01:59:11.992Z,90.93
2016-05-25T02:00:12.026Z,91.22
2016-05-25T02:01:12.373Z,90.74
2016-05-25T02:02:12.079Z,90.93
2016-05-25T02:03:12.112Z,90.74
2016-05-25T02:04:12.162Z,91.03
2016-05-25T02:05:12.180Z,90.84
2016-05-25T02:06:12.214Z,90.74
2016-05-25T02:07:12.092Z,90.93
2016-05-25T02:08:12.282Z,90.93
2016-05-25T02:09:12.316Z,90.74
2016-05-25T02:10:12.194Z,90.84
2016-05-25T02:11:12.228Z,90.45
2016-05-25T02:12:12.434Z,90.08
2016-05-25T02:13:12.452Z,89.79
2016-05-25T02:14:12.486Z,90.08
2016-05-25T02:15:12.519Z,90.08
2016-05-25T02:16:12.554Z,90.17
2016-05-25T02:17:13.103Z,90.17
2016-05-25T02:18:12.606Z,90.17
2016-05-25T02:19:12.640Z,90.55
2016-05-25T02:20:12.674Z,90.55
2016-05-25T02:21:12.723Z,90.36
2016-05-25T02:22:12.742Z,90.36
2016-05-25T02:23:12.776Z,90.36
2016-05-25T02:24:12.810Z,90.84
2016-05-25T02:25:12.843Z,90.84
2016-05-25T02:26:12.878Z,91.22
2016-05-25T02:27:12.911Z,91.22
2016-05-25T02:28:12.945Z,91.41
2016-05-25T02:29:12.963Z,91.41
2016-05-25T02:30:12.997Z,91.41
2016-05-25T02:31:13.922Z,91.41
2016-05-25T02:32:13.065Z,91.22
2016-05-25T02:33:13.115Z,91.22
2016-05-25T02:34:13.134Z,91.41
2016-05-25T02:35:13.183Z,91.79
2016-05-25T02:36:13.201Z,91.6
2016-05-25T02:37:13.235Z,92.08
2016-05-25T02:38:13.269Z,92.36
2016-05-25T02:39:13.146Z,92.36
2016-05-25T02:40:13.337Z,92.17
2016-05-25T02:41:13.371Z,92.36
2016-05-25T02:42:13.405Z,92.17
2016-05-25T02:43:13.439Z,91.88
2016-05-25T02:44:13.457Z,91.88
2016-05-25T02:45:13.491Z,91.98
2016-05-25T02:46:13.385Z,91.98
2016-05-25T02:47:13.590Z,91.88
2016-05-25T02:48:13.593Z,91.13
2016-05-25T02:49:13.626Z,91.22
2016-05-25T02:50:13.660Z,91.41
2016-05-25T02:51:13.696Z,91.13
2016-05-25T02:52:13.728Z,91.22
2016-05-25T02:53:13.747Z,90.93
2016-05-25T02:54:13.796Z,91.31
2016-05-25T02:55:13.659Z,91.13
2016-05-25T02:56:13.865Z,91.22
2016-05-25T02:57:13.882Z,91.79
2016-05-25T02:58:13.917Z,91.79
2016-05-25T02:59:13.966Z,91.98
2016-05-25T03:00:13.984Z,91.5
2016-05-25T03:01:14.097Z,91.31
2016-05-25T03:02:14.084Z,91.41
2016-05-25T03:03:14.117Z,91.98
2016-05-25T03:04:14.120Z,91.41
2016-05-25T03:05:14.216Z,91.98
2016-05-25T03:06:14.189Z,91.69
2016-05-25T03:07:14.222Z,91.79
2016-05-25T03:08:14.241Z,91.5
2016-05-25T03:09:14.274Z,91.41
2016-05-25T03:10:14.308Z,91.22
2016-05-25T03:11:14.341Z,91.22
2016-05-25T03:12:14.377Z,91.79
2016-05-25T03:13:14.425Z,92.17
2016-05-25T03:14:14.444Z,92.55
2016-05-25T03:15:14.477Z,91.88
2016-05-25T03:16:14.512Z,92.36
2016-05-25T03:17:14.561Z,92.36
2016-05-25T03:18:14.580Z,92.08
2016-05-25T03:19:14.613Z,91.79
2016-05-25T03:20:14.632Z,91.98
2016-05-25T03:21:14.682Z,91.88
2016-05-25T03:22:14.700Z,92.17
2016-05-25T03:23:14.734Z,92.27
2016-05-25T03:24:14.784Z,92.74
2016-05-25T03:25:14.802Z,92.27
2016-05-25T03:26:14.836Z,92.17
2016-05-25T03:27:14.870Z,91.79
2016-05-25T03:28:14.748Z,92.08
2016-05-25T03:29:14.922Z,91.5
2016-05-25T03:30:14.956Z,92.08
2016-05-25T03:31:15.162Z,91.98
2016-05-25T03:32:15.226Z,91.6
2016-05-25T03:33:15.058Z,91.79
2016-05-25T03:34:15.092Z,91.88
2016-05-25T03:35:15.125Z,92.27
2016-05-25T03:36:15.175Z,91.88
2016-05-25T03:37:15.194Z,92.08
2016-05-25T03:38:15.086Z,92.17
2016-05-25T03:39:15.261Z,92.17
2016-05-25T03:40:15.295Z,91.88
2016-05-25T03:41:15.329Z,91.88
2016-05-25T03:42:15.363Z,91.6
2016-05-25T03:43:35.600Z,91.98
2016-05-25T03:44:15.415Z,91.98
2016-05-25T03:45:15.449Z,91.6
2016-05-25T03:46:15.327Z,92.17
2016-05-25T03:47:15.533Z,92.08
2016-05-25T03:48:15.552Z,91.88
2016-05-25T03:49:15.429Z,91.79
2016-05-25T03:50:15.619Z,91.79
2016-05-25T03:51:15.652Z,92.08
2016-05-25T03:52:15.687Z,91.98
2016-05-25T03:53:15.721Z,91.6
2016-05-25T03:54:15.754Z,91.69
2016-05-25T03:55:15.774Z,91.79
2016-05-25T03:56:15.807Z,91.98
2016-05-25T03:57:15.685Z,91.69
2016-05-25T03:58:15.719Z,91.41
2016-05-25T03:59:15.910Z,91.98
2016-05-25T04:00:15.943Z,91.41
2016-05-25T04:01:15.976Z,91.6
2016-05-25T04:02:16.027Z,91.41
2016-05-25T04:03:16.045Z,91.03
2016-05-25T04:04:16.079Z,91.13
2016-05-25T04:05:15.957Z,91.98
2016-05-25T04:06:16.147Z,91.6
2016-05-25T04:07:16.164Z,91.69
2016-05-25T04:08:16.199Z,91.98
2016-05-25T04:09:16.233Z,91.6
2016-05-25T04:10:16.126Z,91.5
2016-05-25T04:11:16.144Z,91.6
2016-05-25T04:12:16.334Z,91.79
2016-05-25T04:13:16.369Z,91.31
2016-05-25T04:14:16.419Z,90.55
2016-05-25T04:15:16.436Z,91.22
2016-05-25T04:16:16.470Z,91.03
2016-05-25T04:17:16.738Z,91.31
2016-05-25T04:18:16.538Z,91.22
2016-05-25T04:19:16.580Z,90.84
2016-05-25T04:20:16.653Z,90.93
2016-05-25T04:21:16.695Z,90.84
2016-05-25T04:22:16.753Z,91.13
2016-05-25T04:23:16.811Z,91.03
2016-05-25T04:24:16.853Z,91.03
2016-05-25T04:25:16.896Z,90.45
2016-05-25T04:26:16.938Z,90.36
2016-05-25T04:27:16.981Z,89.89
2016-05-25T04:28:17.023Z,90.17
2016-05-25T04:29:17.060Z,91.03
2016-05-25T04:30:17.082Z,91.13
2016-05-25T04:31:17.760Z,91.13
2016-05-25T04:32:16.999Z,90.36
2016-05-25T04:33:17.208Z,90.74
2016-05-25T04:34:17.228Z,90.98
2016-05-25T04:35:17.262Z,90.74
2016-05-25T04:36:17.314Z,90.74
2016-05-25T04:37:17.176Z,90.84
2016-05-25T04:38:17.369Z,91.22
2016-05-25T04:39:17.387Z,91.41
2016-05-25T04:40:17.436Z,91.13
2016-05-25T04:41:17.471Z,91.41
2016-05-25T04:42:17.506Z,91.5
2016-05-25T04:43:17.539Z,90.93
2016-05-25T04:44:17.559Z,90.64
2016-05-25T04:45:17.607Z,91.13
2016-05-25T04:46:17.704Z,90.93
2016-05-25T04:47:17.520Z,91.22
2016-05-25T04:48:17.694Z,91.41
2016-05-25T04:49:17.728Z,91.31
2016-05-25T04:50:17.762Z,91.13
2016-05-25T04:51:17.795Z,91.22
2016-05-25T04:52:17.830Z,91.79
2016-05-25T04:53:17.863Z,91.79
2016-05-25T04:54:17.898Z,91.88
2016-05-25T04:55:17.931Z,91.98
2016-05-25T04:56:17.965Z,91.79
2016-05-25T04:57:17.983Z,91.41
2016-05-25T04:58:18.017Z,91.79
2016-05-25T04:59:18.067Z,91.69
2016-05-25T05:00:18.086Z,91.88
2016-05-25T05:01:18.213Z,91.41
2016-05-25T05:02:17.997Z,91.69
2016-05-25T05:03:18.188Z,92.08
2016-05-25T05:04:18.221Z,91.88
2016-05-25T05:05:18.255Z,91.88
2016-05-25T05:06:18.288Z,92.08
2016-05-25T05:07:18.323Z,91.88
2016-05-25T05:08:18.357Z,91.79
2016-05-25T05:09:18.390Z,92.55
2016-05-25T05:10:18.424Z,92.46
2016-05-25T05:11:18.459Z,92.36
2016-05-25T05:12:18.477Z,91.88
2016-05-25T05:13:18.511Z,91.98
2016-05-25T05:14:18.545Z,91.79
2016-05-25T05:15:18.579Z,91.79
2016-05-25T05:16:18.754Z,91.98
2016-05-25T05:17:18.490Z,91.88
2016-05-25T05:18:18.681Z,91.55
2016-05-25T05:19:18.714Z,91.93
2016-05-25T05:20:18.593Z,91.27
2016-05-25T05:21:18.783Z,91.55
2016-05-25T05:22:18.817Z,90.98
2016-05-25T05:23:18.850Z,91.55
2016-05-25T05:24:18.869Z,91.46
2016-05-25T05:25:18.919Z,91.27
2016-05-25T05:26:18.937Z,90.88
2016-05-25T05:27:18.986Z,91.46
2016-05-25T05:28:19.020Z,91.17
2016-05-25T05:29:19.038Z,90.59
2016-05-25T05:30:19.072Z,91.27
2016-05-25T05:31:18.950Z,91.64
2016-05-25T05:32:19.141Z,90.88
2016-05-25T05:33:19.174Z,90.79
2016-05-25T05:34:19.208Z,91.17
2016-05-25T05:35:19.242Z,90.31
2016-05-25T05:36:19.120Z,90.41
2016-05-25T05:37:19.154Z,90.12
2016-05-25T05:38:19.344Z,90.12
2016-05-25T05:39:19.362Z,89.36
2016-05-25T05:40:19.412Z,89.64
2016-05-25T05:41:19.446Z,90.12
2016-05-25T05:42:19.323Z,89.45
2016-05-25T05:43:19.498Z,88.31
2016-05-25T05:44:19.547Z,88.4
2016-05-25T05:45:19.410Z,88.5
2016-05-25T05:46:19.600Z,87.74
2016-05-25T05:47:19.509Z,88.12
2016-05-25T05:48:19.668Z,87.74
2016-05-25T05:49:19.701Z,87.54
2016-05-25T05:50:19.736Z,87.68
2016-05-25T05:51:19.770Z,87.3
2016-05-25T05:52:19.803Z,87.87
2016-05-25T05:53:19.837Z,87.64
2016-05-25T05:54:19.871Z,87.26
2016-05-25T05:55:19.921Z,87.78
2016-05-25T05:56:19.939Z,87.54
2016-05-25T05:57:19.973Z,87.49
2016-05-25T05:58:20.008Z,87.78
2016-05-25T05:59:20.041Z,87.49
2016-05-25T06:00:20.075Z,87.78
2016-05-25T06:01:19.952Z,87.4
2016-05-25T06:02:20.002Z,87.78
2016-05-25T06:03:20.192Z,88.07
2016-05-25T06:04:20.210Z,88.07
2016-05-25T06:05:20.229Z,88.12
2016-05-25T06:06:20.263Z,88.12
2016-05-25T06:07:20.296Z,89.17
2016-05-25T06:08:20.347Z,88.4
2016-05-25T06:09:20.396Z,88.31
2016-05-25T06:10:20.415Z,88.31
2016-05-25T06:11:20.433Z,88.78
2016-05-25T06:12:20.466Z,87.93
2016-05-25T06:13:20.516Z,87.49
2016-05-25T06:14:20.534Z,87.45
2016-05-25T06:15:20.568Z,87.78
2016-05-25T06:16:20.618Z,87.68
2016-05-25T06:17:20.636Z,86.92
2016-05-25T06:18:20.671Z,86.73
2016-05-25T06:19:20.704Z,86.63
2016-05-25T06:20:20.581Z,86.16
2016-05-25T06:21:20.773Z,85.87
2016-05-25T06:22:20.806Z,86.16
2016-05-25T06:23:23.950Z,86.44
2016-05-25T06:24:20.874Z,86.54
2016-05-25T06:25:20.908Z,86.16
2016-05-25T06:26:20.942Z,86.06
2016-05-25T06:27:20.975Z,86.06
2016-05-25T06:28:22.244Z,86.16
2016-05-25T06:29:21.043Z,86.25
2016-05-25T06:30:21.077Z,86.16
2016-05-25T06:31:21.111Z,86.54
2016-05-25T06:32:21.161Z,86.82
2016-05-25T06:33:21.180Z,86.92
2016-05-25T06:34:21.214Z,86.82
2016-05-25T06:35:21.263Z,87.11
2016-05-25T06:36:21.281Z,87.3
2016-05-25T06:37:21.331Z,87.78
2016-05-25T06:38:26.005Z,87.49
2016-05-25T06:39:21.227Z,87.97
2016-05-25T06:40:21.416Z,87.59
2016-05-25T06:41:21.452Z,87.49
2016-05-25T06:42:21.485Z,87.87
2016-05-25T06:43:21.519Z,87.49
2016-05-25T06:44:21.552Z,87.68
2016-05-25T06:45:21.602Z,86.92
2016-05-25T06:46:21.839Z,87.02
2016-05-25T06:47:21.670Z,85.97
2016-05-25T06:48:26.829Z,85.3
2016-05-25T06:49:21.722Z,85.87
2016-05-25T06:50:21.757Z,85.77
2016-05-25T06:51:21.790Z,85.87
2016-05-25T06:52:21.823Z,85.3
2016-05-25T06:53:22.640Z,85.15
2016-05-25T06:54:21.892Z,85.44
2016-05-25T06:55:21.926Z,85.34
2016-05-25T06:56:21.960Z,85.11
2016-05-25T06:57:21.994Z,85.87
2016-05-25T06:58:24.028Z,85.77
2016-05-25T06:59:22.061Z,85.21
2016-05-25T07:00:21.939Z,85.21
2016-05-25T07:01:22.583Z,85.21
2016-05-25T07:02:22.523Z,84.77
2016-05-25T07:03:25.572Z,84.92
2016-05-25T07:04:22.247Z,84.63
2016-05-25T07:05:22.266Z,84
2016-05-25T07:06:22.299Z,84.77
2016-05-25T07:07:22.333Z,84.29
2016-05-25T07:08:22.367Z,84.2
2016-05-25T07:09:22.401Z,83.14
2016-05-25T07:10:22.451Z,83.34
2016-05-25T07:11:22.485Z,82.76
2016-05-25T07:12:22.502Z,82.52
2016-05-25T07:13:29.943Z,82.42
2016-05-25T07:14:22.571Z,82.32
2016-05-25T07:15:22.604Z,81.95
2016-05-25T07:16:22.701Z,81.76
2016-05-25T07:17:22.720Z,81.85
2016-05-25T07:18:25.535Z,81.85
2016-05-25T07:19:22.756Z,82.23
2016-05-25T07:20:22.774Z,82.38
2016-05-25T07:21:22.809Z,82.95
2016-05-25T07:22:22.843Z,83.34
2016-05-25T07:23:23.704Z,83.34
2016-05-25T07:24:22.926Z,83.72
2016-05-25T07:25:22.787Z,84
2016-05-25T07:26:22.994Z,84.1
2016-05-25T07:27:23.012Z,84.67
2016-05-25T07:28:30.436Z,84.39
2016-05-25T07:29:23.095Z,84.39
2016-05-25T07:30:23.130Z,84.77
2016-05-25T07:31:23.164Z,84.48
2016-05-25T07:32:23.885Z,84.58
2016-05-25T07:33:25.763Z,85.15
2016-05-25T07:34:23.109Z,84.58
2016-05-25T07:35:23.299Z,84.67
2016-05-25T07:36:23.334Z,84.67
2016-05-25T07:37:23.367Z,84
2016-05-25T07:38:25.011Z,83.91
2016-05-25T07:39:23.435Z,83.05
2016-05-25T07:40:23.485Z,83.62
2016-05-25T07:41:23.362Z,83.18
2016-05-25T07:42:23.552Z,83.24
2016-05-25T07:43:23.586Z,82.61
2016-05-25T07:44:23.605Z,82.95
2016-05-25T07:45:23.638Z,83.24
2016-05-25T07:46:23.673Z,82.61
2016-05-25T07:47:25.535Z,82.67
2016-05-25T07:48:24.693Z,82.95
2016-05-25T07:49:23.791Z,82.76
2016-05-25T07:50:23.809Z,82.23
2016-05-25T07:51:23.858Z,82.19
2016-05-25T07:52:23.892Z,83
2016-05-25T07:53:25.660Z,83.14
2016-05-25T07:54:23.960Z,83.24
2016-05-25T07:55:23.979Z,83.43
2016-05-25T07:56:24.028Z,83.47
2016-05-25T07:57:30.061Z,83.28
2016-05-25T07:58:23.940Z,83.47
2016-05-25T07:59:24.129Z,83.28
2016-05-25T08:00:24.147Z,82.23
2016-05-25T08:01:24.400Z,82.61
2016-05-25T08:02:24.981Z,82.61
2016-05-25T08:03:24.109Z,82.52
2016-05-25T08:04:24.300Z,82.23
2016-05-25T08:05:24.333Z,82.52
2016-05-25T08:06:24.367Z,83.38
2016-05-25T08:07:24.401Z,83.24
2016-05-25T08:08:24.935Z,83.34
2016-05-25T08:09:24.469Z,82.57
2016-05-25T08:10:24.503Z,82.48
2016-05-25T08:11:24.537Z,82.09
2016-05-25T08:12:24.586Z,82.67
2016-05-25T08:13:26.338Z,81.95
2016-05-25T08:14:24.482Z,81.95
2016-05-25T08:15:24.532Z,81.47
2016-05-25T08:16:24.566Z,81.37
2016-05-25T08:17:24.757Z,80.51
2016-05-25T08:18:26.743Z,80.32
2016-05-25T08:19:24.808Z,80.61
2016-05-25T08:20:24.858Z,80.8
2016-05-25T08:21:24.892Z,81.47
2016-05-25T08:22:26.816Z,81.95
2016-05-25T08:23:24.960Z,80.9
2016-05-25T08:24:24.837Z,81.66
2016-05-25T08:25:25.028Z,81.47
2016-05-25T08:26:25.061Z,81.76
2016-05-25T08:27:25.095Z,81.56
2016-05-25T08:28:25.129Z,81.56
2016-05-25T08:29:25.148Z,81.85
2016-05-25T08:30:25.197Z,81.47
2016-05-25T08:31:25.262Z,81.95
2016-05-25T08:32:25.906Z,81.37
2016-05-25T08:33:25.300Z,82.23
2016-05-25T08:34:25.333Z,81.56
2016-05-25T08:35:25.367Z,81.76
2016-05-25T08:36:25.400Z,82.23
2016-05-25T08:37:26.436Z,82.81
2016-05-25T08:38:25.531Z,82.52
2016-05-25T08:39:25.503Z,82.61
2016-05-25T08:40:25.552Z,82.9
2016-05-25T08:41:25.414Z,82.52
2016-05-25T08:42:25.605Z,82
2016-05-25T08:43:26.763Z,82.29
2016-05-25T08:44:25.672Z,82.9
2016-05-25T08:45:25.707Z,83.09
2016-05-25T08:46:25.615Z,82.57
2016-05-25T08:47:25.790Z,81.85
2016-05-25T08:48:25.668Z,82.42
2016-05-25T08:49:25.857Z,82.23
2016-05-25T08:50:25.735Z,81.95
2016-05-25T08:51:25.941Z,82.04
2016-05-25T08:52:25.976Z,81.85
2016-05-25T08:53:25.837Z,81.66
2016-05-25T08:54:26.027Z,81.56
2016-05-25T08:55:26.062Z,81.18
2016-05-25T08:56:26.111Z,81.18
2016-05-25T08:57:26.129Z,81.47
2016-05-25T08:58:26.163Z,81.27
2016-05-25T08:59:26.213Z,81.56
2016-05-25T09:00:26.231Z,82.32
2016-05-25T09:01:26.437Z,82.23
2016-05-25T09:02:26.315Z,82.32
2016-05-25T09:03:26.348Z,82.61
2016-05-25T09:04:26.366Z,83.09
2016-05-25T09:05:26.401Z,82.9
2016-05-25T09:06:26.434Z,83.09
2016-05-25T09:07:26.328Z,83.18
2016-05-25T09:08:26.362Z,83.18
2016-05-25T09:09:26.567Z,83.47
2016-05-25T09:10:26.586Z,83
2016-05-25T09:11:26.620Z,82.71
2016-05-25T09:12:26.655Z,82.61
2016-05-25T09:13:26.532Z,82.42
2016-05-25T09:14:26.566Z,82.81
2016-05-25T09:15:26.756Z,83
2016-05-25T09:16:26.806Z,82.61
2016-05-25T09:17:27.807Z,82.61
2016-05-25T09:18:26.874Z,82.04
2016-05-25T09:19:26.907Z,82.52
2016-05-25T09:20:26.941Z,81.95
2016-05-25T09:21:26.975Z,81.56
2016-05-25T09:22:28.182Z,81.56
2016-05-25T09:23:27.074Z,81.37
2016-05-25T09:24:26.905Z,81.27
2016-05-25T09:25:27.110Z,80.51
2016-05-25T09:26:27.145Z,81.18
2016-05-25T09:27:29.209Z,80.32
2016-05-25T09:28:27.197Z,80.04
2016-05-25T09:29:27.246Z,79.75
2016-05-25T09:30:27.281Z,79.88
2016-05-25T09:31:27.159Z,79.02
2016-05-25T09:32:28.208Z,79.31
2016-05-25T09:33:27.382Z,79.17
2016-05-25T09:34:27.417Z,79.22
2016-05-25T09:35:27.450Z,78.36
2016-05-25T09:36:27.500Z,77.97
2016-05-25T09:37:27.517Z,78.16
2016-05-25T09:38:27.553Z,77.4
2016-05-25T09:39:27.602Z,77.63
2016-05-25T09:40:27.619Z,77.3
2016-05-25T09:41:27.670Z,78.07
2016-05-25T09:42:27.689Z,77.5
2016-05-25T09:43:27.738Z,77.25
2016-05-25T09:44:27.615Z,76.86
2016-05-25T09:45:27.649Z,77.06
2016-05-25T09:46:28.074Z,76.77
2016-05-25T09:47:29.749Z,76.39
2016-05-25T09:48:27.907Z,76.39
2016-05-25T09:49:27.785Z,76.29
2016-05-25T09:50:27.975Z,75.81
2016-05-25T09:51:28.009Z,75.91
2016-05-25T09:52:30.027Z,76.67
2016-05-25T09:53:27.936Z,76.67
2016-05-25T09:54:28.126Z,76.57
2016-05-25T09:55:28.160Z,77.06
2016-05-25T09:56:28.193Z,76.57
2016-05-25T09:57:28.229Z,76
2016-05-25T09:58:28.262Z,75.91
2016-05-25T09:59:28.342Z,75.71
2016-05-25T10:00:28.329Z,76.29
2016-05-25T10:01:28.207Z,76.1
2016-05-25T10:02:28.429Z,76.86
2016-05-25T10:03:28.431Z,77.06
2016-05-25T10:04:28.325Z,75.43
2016-05-25T10:05:28.500Z,75.52
2016-05-25T10:06:28.549Z,76.48
2016-05-25T10:07:30.192Z,76.48
2016-05-25T10:08:28.617Z,76.2
2016-05-25T10:09:28.667Z,76.39
2016-05-25T10:10:28.700Z,76.2
2016-05-25T10:11:28.578Z,75.34
2016-05-25T10:12:28.769Z,76.2
2016-05-25T10:13:28.802Z,75.34
2016-05-25T10:14:28.821Z,75.43
2016-05-25T10:15:28.870Z,74.19
2016-05-25T10:16:28.905Z,73.84
2016-05-25T10:17:28.955Z,74.22
2016-05-25T10:18:28.972Z,73.75
2016-05-25T10:19:29.005Z,72.5
2016-05-25T10:20:29.040Z,72.41
2016-05-25T10:21:29.121Z,72.22
2016-05-25T10:22:29.108Z,71.55
2016-05-25T10:23:29.157Z,71.64
2016-05-25T10:24:29.192Z,71.48
2016-05-25T10:25:29.226Z,70.81
2016-05-25T10:26:29.274Z,70.15
2016-05-25T10:27:29.153Z,70.24
2016-05-25T10:28:29.343Z,70.34
2016-05-25T10:29:29.376Z,71.68
2016-05-25T10:30:29.410Z,70.34
2016-05-25T10:31:29.445Z,70.15
2016-05-25T10:32:29.651Z,69.95
2016-05-25T10:33:29.528Z,70.43
2016-05-25T10:34:29.562Z,71.97
2016-05-25T10:35:29.596Z,71.48
2016-05-25T10:36:29.630Z,71.58
2016-05-25T10:37:29.679Z,71.58
2016-05-25T10:38:29.698Z,71.68
2016-05-25T10:39:29.747Z,71.87
2016-05-25T10:40:29.828Z,72.16
2016-05-25T10:41:29.815Z,72.25
2016-05-25T10:42:29.850Z,72.25
2016-05-25T10:43:29.899Z,72.06
2016-05-25T10:44:29.932Z,71.58
2016-05-25T10:45:29.966Z,71.58
2016-05-25T10:46:30.032Z,71.58
2016-05-25T10:47:30.050Z,71.48
2016-05-25T10:48:30.084Z,71.68
2016-05-25T10:49:30.118Z,71.39
2016-05-25T10:50:29.996Z,71.93
2016-05-25T10:51:30.186Z,72.06
2016-05-25T10:52:30.220Z,71.68
2016-05-25T10:53:30.113Z,71.77
2016-05-25T10:54:30.304Z,71.97
2016-05-25T10:55:30.338Z,71.58
2016-05-25T10:56:30.371Z,71.11
2016-05-25T10:57:30.249Z,70.53
2016-05-25T10:58:30.439Z,70.05
2016-05-25T10:59:30.488Z,70.43
2016-05-25T11:00:30.538Z,70.24
2016-05-25T11:01:30.400Z,69.67
2016-05-25T11:02:30.591Z,68.94
2016-05-25T11:03:30.624Z,69.03
2016-05-25T11:04:30.659Z,68.17
2016-05-25T11:05:30.709Z,67.88
2016-05-25T11:06:30.742Z,68.27
2016-05-25T11:07:30.635Z,68.07
2016-05-25T11:08:30.809Z,67.69
2016-05-25T11:09:30.844Z,67.21
2016-05-25T11:10:30.893Z,67.6
2016-05-25T11:11:30.928Z,66.45
2016-05-25T11:12:30.961Z,66.16
2016-05-25T11:13:30.994Z,65.71
2016-05-25T11:14:31.028Z,65.91
2016-05-25T11:15:31.078Z,66.25
2016-05-25T11:16:31.113Z,67.02
2016-05-25T11:17:31.162Z,68.42
2016-05-25T11:18:31.181Z,68.23
2016-05-25T11:19:31.230Z,67.66
2016-05-25T11:20:31.263Z,67.94
2016-05-25T11:21:31.298Z,67.76
2016-05-25T11:22:31.347Z,67.47
2016-05-25T11:23:31.382Z,66.51
2016-05-25T11:24:31.415Z,66.61
2016-05-25T11:25:31.450Z,66.7
2016-05-25T11:26:31.483Z,66.8
2016-05-25T11:27:31.532Z,66.99
2016-05-25T11:28:31.582Z,68.13
2016-05-25T11:29:31.601Z,68.23
2016-05-25T11:30:31.634Z,69.19
2016-05-25T11:31:31.684Z,68.62
2016-05-25T11:32:31.749Z,69.09
2016-05-25T11:33:31.737Z,69.38
2016-05-25T11:34:31.787Z,69.57
2016-05-25T11:35:31.835Z,70.34
2016-05-25T11:36:31.869Z,70.91
2016-05-25T11:37:31.920Z,71.11
2016-05-25T11:38:31.953Z,71.3
2016-05-25T11:39:31.971Z,71.48
2016-05-25T11:40:32.006Z,71.97
2016-05-25T11:41:32.055Z,71.58
2016-05-25T11:42:32.089Z,71.77
2016-05-25T11:43:31.981Z,71.58
2016-05-25T11:44:32.172Z,71.39
2016-05-25T11:45:32.206Z,71.77
2016-05-25T11:46:32.240Z,71.39
2016-05-25T11:47:32.275Z,71.39
2016-05-25T11:48:32.308Z,71.11
2016-05-25T11:49:32.342Z,71.68
2016-05-25T11:50:32.375Z,71.55
2016-05-25T11:51:32.410Z,71.87
2016-05-25T11:52:32.288Z,71.87
2016-05-25T11:53:32.477Z,71.58
2016-05-25T11:54:32.527Z,70.34
2016-05-25T11:55:32.561Z,71.01
2016-05-25T11:56:32.595Z,70.43
2016-05-25T11:57:32.644Z,71.01
2016-05-25T11:58:32.663Z,71.01
2016-05-25T11:59:32.713Z,69.86
2016-05-25T12:00:32.746Z,70.28
2016-05-25T12:01:32.796Z,70.34
2016-05-25T12:02:33.190Z,70.05
2016-05-25T12:03:32.865Z,70.81
2016-05-25T12:04:32.913Z,70.34
2016-05-25T12:05:32.931Z,69.76
2016-05-25T12:06:32.981Z,68.94
2016-05-25T12:07:33.000Z,68.55
2016-05-25T12:08:33.049Z,68.55
2016-05-25T12:09:33.068Z,68.07
2016-05-25T12:10:33.117Z,67.54
2016-05-25T12:11:33.166Z,68.07
2016-05-25T12:12:33.217Z,68.27
2016-05-25T12:13:33.078Z,69.13
2016-05-25T12:14:33.269Z,69.57
2016-05-25T12:15:33.302Z,68.9
2016-05-25T12:16:47.492Z,68.9
2016-05-25T12:17:33.386Z,69.23
2016-05-25T12:18:33.420Z,68.46
2016-05-25T12:19:33.454Z,67.6
2016-05-25T12:20:33.503Z,68.17
2016-05-25T12:21:33.538Z,68.46
2016-05-25T12:22:33.572Z,68.55
2016-05-25T12:23:33.605Z,68.27
2016-05-25T12:24:33.483Z,68.07
2016-05-25T12:25:33.688Z,68.17
2016-05-25T12:26:33.722Z,67.98
2016-05-25T12:27:33.757Z,69.03
2016-05-25T12:28:33.791Z,68.84
2016-05-25T12:29:33.824Z,68.94
2016-05-25T12:30:33.874Z,68.94
2016-05-25T12:31:33.954Z,68.74
2016-05-25T12:32:33.988Z,68.07
2016-05-25T12:33:33.976Z,67.98
2016-05-25T12:34:34.010Z,67.98
2016-05-25T12:35:34.059Z,67.02
2016-05-25T12:36:34.093Z,68.17
2016-05-25T12:37:34.127Z,68.27
2016-05-25T12:38:34.021Z,67.6
2016-05-25T12:39:34.211Z,66.96
2016-05-25T12:40:34.245Z,66.67
2016-05-25T12:41:34.278Z,67.63
2016-05-25T12:42:34.312Z,67.54
2016-05-25T12:43:34.362Z,66.67
2016-05-25T12:44:34.396Z,66.58
2016-05-25T12:45:34.430Z,65.52
2016-05-25T12:46:34.464Z,66.29
2016-05-25T12:47:35.154Z,65.33
2016-05-25T12:48:34.548Z,65.75
2016-05-25T12:49:34.426Z,65.65
2016-05-25T12:50:34.615Z,65.23
2016-05-25T12:51:34.664Z,65.62
2016-05-25T12:52:34.542Z,66.09
2016-05-25T12:53:34.733Z,65.33
2016-05-25T12:54:34.767Z,65.42
2016-05-25T12:55:34.675Z,65.71